sensor_id;sensor_type;location;lat;lon;timestamp;pressure;altitude;pressure_sealevel;temperature;humidity
75740;BME280;64357;51.344;6.550;2023-11-18T00:00:24;101963.22;;;4.62;100.00
75740;BME280;64357;51.344;6.550;2023-11-18T00:02:50;101974.69;;;4.65;100.00
75740;BME280;64357;51.344;6.550;2023-11-18T00:05:16;101968.78;;;4.59;100.00
75740;BME280;64357;51.344;6.550;2023-11-18T00:07:41;101977.28;;;4.60;100.00
75740;BME280;64357;51.344;6.550;2023-11-18T00:10:07;101981.16;;;4.63;100.00
75740;BME280;64357;51.344;6.550;2023-11-18T00:12:34;101973.34;;;4.62;100.00
75740;BME280;64357;51.344;6.550;2023-11-18T00:15:05;101976.09;;;4.63;100.00
75740;BME280;64357;51.344;6.550;2023-11-18T00:17:34;101969.91;;;4.61;100.00
75740;BME280;64357;51.344;6.550;2023-11-18T00:19:59;101975.16;;;4.63;100.00
75740;BME280;64357;51.344;6.550;2023-11-18T00:22:25;101967.56;;;4.63;100.00
75740;BME280;64357;51.344;6.550;2023-11-18T00:24:50;101974.50;;;4.64;100.00
75740;BME280;64357;51.344;6.550;2023-11-18T00:27:17;101971.50;;;4.61;100.00
75740;BME280;64357;51.344;6.550;2023-11-18T00:29:42;101957.94;;;4.60;100.00
75740;BME280;64357;51.344;6.550;2023-11-18T00:32:11;101947.81;;;4.60;100.00
75740;BME280;64357;51.344;6.550;2023-11-18T00:34:38;101950.31;;;4.66;100.00
75740;BME280;64357;51.344;6.550;2023-11-18T00:37:09;101947.78;;;4.66;100.00
75740;BME280;64357;51.344;6.550;2023-11-18T00:39:56;101947.56;;;4.64;100.00
75740;BME280;64357;51.344;6.550;2023-11-18T00:42:22;101948.28;;;4.63;100.00
75740;BME280;64357;51.344;6.550;2023-11-18T00:44:47;101938.41;;;4.59;100.00
75740;BME280;64357;51.344;6.550;2023-11-18T00:47:15;101920.09;;;4.49;100.00
75740;BME280;64357;51.344;6.550;2023-11-18T00:49:40;101947.13;;;4.61;100.00
75740;BME280;64357;51.344;6.550;2023-11-18T00:52:06;101939.31;;;4.60;100.00
75740;BME280;64357;51.344;6.550;2023-11-18T00:54:32;101939.31;;;4.60;100.00
75740;BME280;64357;51.344;6.550;2023-11-18T00:56:57;101927.59;;;4.60;100.00
75740;BME280;64357;51.344;6.550;2023-11-18T00:59:30;101940.69;;;4.63;100.00
75740;BME280;64357;51.344;6.550;2023-11-18T01:01:58;101937.69;;;4.60;100.00
75740;BME280;64357;51.344;6.550;2023-11-18T01:04:28;101928.75;;;4.57;100.00
75740;BME280;64357;51.344;6.550;2023-11-18T01:06:53;101933.16;;;4.58;100.00
75740;BME280;64357;51.344;6.550;2023-11-18T01:09:19;101935.69;;;4.58;100.00
75740;BME280;64357;51.344;6.550;2023-11-18T01:11:47;101943.81;;;4.68;100.00
75740;BME280;64357;51.344;6.550;2023-11-18T01:14:12;101933.34;;;4.59;100.00
75740;BME280;64357;51.344;6.550;2023-11-18T01:16:38;101943.47;;;4.59;100.00
75740;BME280;64357;51.344;6.550;2023-11-18T01:19:03;101952.19;;;4.61;100.00
75740;BME280;64357;51.344;6.550;2023-11-18T01:21:28;101963.47;;;4.63;100.00
75740;BME280;64357;51.344;6.550;2023-11-18T01:23:54;101960.47;;;4.60;100.00
75740;BME280;64357;51.344;6.550;2023-11-18T01:26:19;101967.88;;;4.59;100.00
75740;BME280;64357;51.344;6.550;2023-11-18T01:28:44;101976.16;;;4.58;100.00
75740;BME280;64357;51.344;6.550;2023-11-18T01:31:14;101981.84;;;4.62;100.00
75740;BME280;64357;51.344;6.550;2023-11-18T01:33:40;101978.63;;;4.63;100.00
75740;BME280;64357;51.344;6.550;2023-11-18T01:36:07;101980.66;;;4.66;100.00
75740;BME280;64357;51.344;6.550;2023-11-18T01:38:34;101983.25;;;4.60;100.00
75740;BME280;64357;51.344;6.550;2023-11-18T01:40:59;101970.00;;;4.50;100.00
75740;BME280;64357;51.344;6.550;2023-11-18T01:43:25;101964.28;;;4.45;100.00
75740;BME280;64357;51.344;6.550;2023-11-18T01:45:51;101955.81;;;4.39;100.00
75740;BME280;64357;51.344;6.550;2023-11-18T01:48:16;101959.06;;;4.38;100.00
75740;BME280;64357;51.344;6.550;2023-11-18T01:50:42;101970.63;;;4.31;100.00
75740;BME280;64357;51.344;6.550;2023-11-18T01:53:10;101978.88;;;4.35;100.00
75740;BME280;64357;51.344;6.550;2023-11-18T01:55:36;101979.34;;;4.33;100.00
75740;BME280;64357;51.344;6.550;2023-11-18T01:58:03;101979.84;;;4.30;100.00
75740;BME280;64357;51.344;6.550;2023-11-18T02:00:37;101982.78;;;4.33;100.00
75740;BME280;64357;51.344;6.550;2023-11-18T02:03:06;101970.44;;;4.29;100.00
75740;BME280;64357;51.344;6.550;2023-11-18T02:05:36;101978.88;;;4.35;100.00
75740;BME280;64357;51.344;6.550;2023-11-18T02:08:03;101970.13;;;4.33;100.00
75740;BME280;64357;51.344;6.550;2023-11-18T02:10:45;101947.88;;;4.31;100.00
75740;BME280;64357;51.344;6.550;2023-11-18T02:13:26;101967.41;;;4.32;100.00
75740;BME280;64357;51.344;6.550;2023-11-18T02:15:57;101959.09;;;4.33;100.00
75740;BME280;64357;51.344;6.550;2023-11-18T02:18:27;101957.03;;;4.36;100.00
75740;BME280;64357;51.344;6.550;2023-11-18T02:20:56;101956.81;;;4.34;100.00
75740;BME280;64357;51.344;6.550;2023-11-18T02:23:28;101948.75;;;4.37;100.00
75740;BME280;64357;51.344;6.550;2023-11-18T02:25:53;101937.50;;;4.35;100.00
75740;BME280;64357;51.344;6.550;2023-11-18T02:28:22;101946.00;;;4.35;100.00
75740;BME280;64357;51.344;6.550;2023-11-18T02:30:50;101952.03;;;4.30;100.00
75740;BME280;64357;51.344;6.550;2023-11-18T02:33:36;101951.31;;;4.31;100.00
75740;BME280;64357;51.344;6.550;2023-11-18T02:36:11;101949.69;;;4.32;100.00
75740;BME280;64357;51.344;6.550;2023-11-18T02:38:44;101948.53;;;4.35;100.00
75740;BME280;64357;51.344;6.550;2023-11-18T02:41:15;101945.56;;;4.32;100.00
75740;BME280;64357;51.344;6.550;2023-11-18T02:43:43;101941.66;;;4.34;100.00
75740;BME280;64357;51.344;6.550;2023-11-18T02:46:12;101943.47;;;4.35;100.00
75740;BME280;64357;51.344;6.550;2023-11-18T02:48:38;101932.69;;;4.31;100.00
75740;BME280;64357;51.344;6.550;2023-11-18T02:51:04;101936.84;;;4.30;100.00
75740;BME280;64357;51.344;6.550;2023-11-18T02:53:30;101949.66;;;4.37;100.00
75740;BME280;64357;51.344;6.550;2023-11-18T02:55:58;101966.44;;;4.37;100.00
75740;BME280;64357;51.344;6.550;2023-11-18T02:58:29;101963.91;;;4.37;100.00
75740;BME280;64357;51.344;6.550;2023-11-18T03:00:55;101959.56;;;4.36;100.00
75740;BME280;64357;51.344;6.550;2023-11-18T03:03:20;101962.97;;;4.42;100.00
75740;BME280;64357;51.344;6.550;2023-11-18T03:05:46;101955.63;;;4.38;100.00
75740;BME280;64357;51.344;6.550;2023-11-18T03:08:15;101953.59;;;4.35;100.00
75740;BME280;64357;51.344;6.550;2023-11-18T03:10:40;101954.06;;;4.33;100.00
75740;BME280;64357;51.344;6.550;2023-11-18T03:13:09;101948.38;;;4.28;100.00
75740;BME280;64357;51.344;6.550;2023-11-18T03:15:37;101943.06;;;4.26;100.00
75740;BME280;64357;51.344;6.550;2023-11-18T03:18:03;101936.63;;;4.28;100.00
75740;BME280;64357;51.344;6.550;2023-11-18T03:20:30;101922.38;;;4.29;100.00
75740;BME280;64357;51.344;6.550;2023-11-18T03:22:59;101918.03;;;4.28;100.00
75740;BME280;64357;51.344;6.550;2023-11-18T03:25:28;101929.22;;;4.36;100.00
75740;BME280;64357;51.344;6.550;2023-11-18T03:27:56;101922.75;;;4.38;100.00
75740;BME280;64357;51.344;6.550;2023-11-18T03:30:21;101914.69;;;4.40;100.00
75740;BME280;64357;51.344;6.550;2023-11-18T03:32:47;101902.13;;;4.29;100.00
75740;BME280;64357;51.344;6.550;2023-11-18T03:35:12;101916.41;;;4.28;100.00
75740;BME280;64357;51.344;6.550;2023-11-18T03:37:38;101933.88;;;4.27;100.00
75740;BME280;64357;51.344;6.550;2023-11-18T03:40:08;101927.59;;;4.36;100.00
75740;BME280;64357;51.344;6.550;2023-11-18T03:42:33;101915.69;;;4.30;100.00
75740;BME280;64357;51.344;6.550;2023-11-18T03:45:05;101930.81;;;4.35;100.00
75740;BME280;64357;51.344;6.550;2023-11-18T03:47:30;101928.13;;;4.28;100.00
75740;BME280;64357;51.344;6.550;2023-11-18T03:49:56;101940.28;;;4.31;100.00
75740;BME280;64357;51.344;6.550;2023-11-18T03:52:21;101947.66;;;4.29;100.00
75740;BME280;64357;51.344;6.550;2023-11-18T03:54:47;101942.16;;;4.26;100.00
75740;BME280;64357;51.344;6.550;2023-11-18T03:57:14;101933.19;;;4.28;100.00
75740;BME280;64357;51.344;6.550;2023-11-18T03:59:40;101946.47;;;4.33;100.00
75740;BME280;64357;51.344;6.550;2023-11-18T04:02:08;101935.47;;;4.26;100.00
75740;BME280;64357;51.344;6.550;2023-11-18T04:04:36;101942.16;;;4.26;100.00
75740;BME280;64357;51.344;6.550;2023-11-18T04:07:06;101937.97;;;4.32;100.00
75740;BME280;64357;51.344;6.550;2023-11-18T04:09:32;101908.38;;;4.25;100.00
75740;BME280;64357;51.344;6.550;2023-11-18T04:12:00;101920.75;;;4.30;100.00
75740;BME280;64357;51.344;6.550;2023-11-18T04:14:30;101921.72;;;4.24;100.00
75740;BME280;64357;51.344;6.550;2023-11-18T04:16:58;101912.78;;;4.21;100.00
75740;BME280;64357;51.344;6.550;2023-11-18T04:19:23;101911.81;;;4.26;100.00
75740;BME280;64357;51.344;6.550;2023-11-18T04:21:51;101908.56;;;4.27;100.00
75740;BME280;64357;51.344;6.550;2023-11-18T04:24:16;101895.00;;;4.26;100.00
75740;BME280;64357;51.344;6.550;2023-11-18T04:26:42;101884.53;;;4.18;100.00
75740;BME280;64357;51.344;6.550;2023-11-18T04:29:10;101900.53;;;4.30;100.00
75740;BME280;64357;51.344;6.550;2023-11-18T04:31:35;101881.91;;;4.29;100.00
75740;BME280;64357;51.344;6.550;2023-11-18T04:34:02;101874.53;;;4.31;100.00
75740;BME280;64357;51.344;6.550;2023-11-18T04:36:30;101873.13;;;4.33;100.00
75740;BME280;64357;51.344;6.550;2023-11-18T04:38:56;101880.38;;;4.42;100.00
75740;BME280;64357;51.344;6.550;2023-11-18T04:41:22;101877.41;;;4.39;100.00
75740;BME280;64357;51.344;6.550;2023-11-18T04:43:48;101877.16;;;4.43;100.00
75740;BME280;64357;51.344;6.550;2023-11-18T04:46:14;101865.63;;;4.45;100.00
75740;BME280;64357;51.344;6.550;2023-11-18T04:48:39;101859.94;;;4.41;100.00
75740;BME280;64357;51.344;6.550;2023-11-18T04:51:05;101859.94;;;4.41;100.00
75740;BME280;64357;51.344;6.550;2023-11-18T04:53:31;101855.34;;;4.38;100.00
75740;BME280;64357;51.344;6.550;2023-11-18T04:55:59;101852.75;;;4.44;100.00
75740;BME280;64357;51.344;6.550;2023-11-18T04:58:24;101872.28;;;4.45;100.00
75740;BME280;64357;51.344;6.550;2023-11-18T05:00:50;101845.69;;;4.41;100.00
75740;BME280;64357;51.344;6.550;2023-11-18T05:03:17;101836.47;;;4.42;100.00
75740;BME280;64357;51.344;6.550;2023-11-18T05:05:43;101830.28;;;4.40;100.00
75740;BME280;64357;51.344;6.550;2023-11-18T05:08:20;101807.84;;;4.30;100.00
75740;BME280;64357;51.344;6.550;2023-11-18T05:10:50;101820.19;;;4.40;100.00
75740;BME280;64357;51.344;6.550;2023-11-18T05:13:16;101811.94;;;4.35;100.00
75740;BME280;64357;51.344;6.550;2023-11-18T05:15:45;101821.09;;;4.40;100.00
75740;BME280;64357;51.344;6.550;2023-11-18T05:18:14;101820.59;;;4.43;100.00
75740;BME280;64357;51.344;6.550;2023-11-18T05:20:44;101811.63;;;4.39;100.00
75740;BME280;64357;51.344;6.550;2023-11-18T05:23:13;101811.16;;;4.42;100.00
75740;BME280;64357;51.344;6.550;2023-11-18T05:25:42;101808.63;;;4.42;100.00
75740;BME280;64357;51.344;6.550;2023-11-18T05:28:10;101806.50;;;4.45;100.00
75740;BME280;64357;51.344;6.550;2023-11-18T05:30:43;101815.25;;;4.47;100.00
75740;BME280;64357;51.344;6.550;2023-11-18T05:33:09;101817.28;;;4.49;100.00
75740;BME280;64357;51.344;6.550;2023-11-18T05:35:35;101820.53;;;4.48;100.00
75740;BME280;64357;51.344;6.550;2023-11-18T05:38:01;101822.47;;;4.57;100.00
75740;BME280;64357;51.344;6.550;2023-11-18T05:40:28;101815.19;;;4.52;100.00
75740;BME280;64357;51.344;6.550;2023-11-18T05:42:54;101822.47;;;4.57;100.00
75740;BME280;64357;51.344;6.550;2023-11-18T05:45:20;101812.34;;;4.57;100.00
75740;BME280;64357;51.344;6.550;2023-11-18T05:47:57;101804.78;;;4.57;100.00
75740;BME280;64357;51.344;6.550;2023-11-18T05:50:25;101815.81;;;4.57;100.00
75740;BME280;64357;51.344;6.550;2023-11-18T05:52:53;101809.16;;;4.58;100.00
75740;BME280;64357;51.344;6.550;2023-11-18T05:55:20;101800.16;;;4.60;100.00
75740;BME280;64357;51.344;6.550;2023-11-18T05:57:50;101787.69;;;4.61;100.00
75740;BME280;64357;51.344;6.550;2023-11-18T06:00:17;101790.66;;;4.64;100.00
75740;BME280;64357;51.344;6.550;2023-11-18T06:02:44;101791.97;;;4.68;100.00
75740;BME280;64357;51.344;6.550;2023-11-18T06:05:10;101791.97;;;4.68;100.00
75740;BME280;64357;51.344;6.550;2023-11-18T06:07:40;101802.03;;;4.73;100.00
75740;BME280;64357;51.344;6.550;2023-11-18T06:10:06;101792.81;;;4.74;100.00
75740;BME280;64357;51.344;6.550;2023-11-18T06:12:32;101775.34;;;4.75;100.00
75740;BME280;64357;51.344;6.550;2023-11-18T06:14:58;101755.44;;;4.66;100.00
75740;BME280;64357;51.344;6.550;2023-11-18T06:17:24;101773.22;;;4.78;100.00
75740;BME280;64357;51.344;6.550;2023-11-18T06:19:49;101764.00;;;4.79;100.00
75740;BME280;64357;51.344;6.550;2023-11-18T06:22:14;101768.34;;;4.80;100.00
75740;BME280;64357;51.344;6.550;2023-11-18T06:24:40;101767.34;;;4.85;100.00
75740;BME280;64357;51.344;6.550;2023-11-18T06:27:06;101768.66;;;4.76;100.00
75740;BME280;64357;51.344;6.550;2023-11-18T06:29:34;101767.03;;;4.76;100.00
75740;BME280;64357;51.344;6.550;2023-11-18T06:32:05;101777.16;;;4.76;100.00
75740;BME280;64357;51.344;6.550;2023-11-18T06:34:31;101779.38;;;4.80;100.00
75740;BME280;64357;51.344;6.550;2023-11-18T06:36:58;101768.59;;;4.81;100.00
75740;BME280;64357;51.344;6.550;2023-11-18T06:39:23;101763.28;;;4.80;100.00
75740;BME280;64357;51.344;6.550;2023-11-18T06:41:56;101774.94;;;4.85;100.00
75740;BME280;64357;51.344;6.550;2023-11-18T06:44:24;101767.88;;;4.82;100.00
75740;BME280;64357;51.344;6.550;2023-11-18T06:46:50;101775.25;;;4.81;100.00
75740;BME280;64357;51.344;6.550;2023-11-18T06:49:21;101772.72;;;4.81;100.00
75740;BME280;64357;51.344;6.550;2023-11-18T06:51:46;101779.63;;;4.82;100.00
75740;BME280;64357;51.344;6.550;2023-11-18T06:54:14;101773.91;;;4.77;100.00
75740;BME280;64357;51.344;6.550;2023-11-18T06:56:41;101778.19;;;4.84;100.00
75740;BME280;64357;51.344;6.550;2023-11-18T06:59:10;101776.56;;;4.85;100.00
75740;BME280;64357;51.344;6.550;2023-11-18T07:01:39;101773.84;;;4.83;100.00
75740;BME280;64357;51.344;6.550;2023-11-18T07:04:08;101787.34;;;4.89;100.00
75740;BME280;64357;51.344;6.550;2023-11-18T07:06:34;101801.34;;;4.93;100.00
75740;BME280;64357;51.344;6.550;2023-11-18T07:09:04;101810.75;;;4.94;100.00
75740;BME280;64357;51.344;6.550;2023-11-18T07:11:34;101797.59;;;4.96;100.00
75740;BME280;64357;51.344;6.550;2023-11-18T07:14:02;101793.03;;;4.94;100.00
75740;BME280;64357;51.344;6.550;2023-11-18T07:16:28;101790.28;;;4.92;100.00
75740;BME280;64357;51.344;6.550;2023-11-18T07:18:56;101793.44;;;4.97;100.00
75740;BME280;64357;51.344;6.550;2023-11-18T07:21:22;101778.47;;;4.98;100.00
75740;BME280;64357;51.344;6.550;2023-11-18T07:23:47;101773.41;;;4.98;100.00
75740;BME280;64357;51.344;6.550;2023-11-18T07:26:13;101779.38;;;4.99;100.00
75740;BME280;64357;51.344;6.550;2023-11-18T07:28:43;101756.59;;;4.99;100.00
75740;BME280;64357;51.344;6.550;2023-11-18T07:31:10;101770.38;;;5.01;100.00
75740;BME280;64357;51.344;6.550;2023-11-18T07:33:37;101759.25;;;5.06;100.00
75740;BME280;64357;51.344;6.550;2023-11-18T07:36:06;101756.91;;;5.07;100.00
75740;BME280;64357;51.344;6.550;2023-11-18T07:38:36;101760.28;;;5.14;100.00
75740;BME280;64357;51.344;6.550;2023-11-18T07:41:01;101760.19;;;5.19;100.00
75740;BME280;64357;51.344;6.550;2023-11-18T07:43:29;101763.84;;;5.21;100.00
75740;BME280;64357;51.344;6.550;2023-11-18T07:45:55;101762.44;;;5.23;100.00
75740;BME280;64357;51.344;6.550;2023-11-18T07:48:26;101760.31;;;5.26;100.00
75740;BME280;64357;51.344;6.550;2023-11-18T07:50:52;101754.31;;;5.26;100.00
75740;BME280;64357;51.344;6.550;2023-11-18T07:53:18;101754.75;;;5.29;100.00
75740;BME280;64357;51.344;6.550;2023-11-18T07:55:43;101755.16;;;5.32;100.00
75740;BME280;64357;51.344;6.550;2023-11-18T07:58:17;101736.59;;;5.26;100.00
75740;BME280;64357;51.344;6.550;2023-11-18T08:00:44;101735.78;;;5.20;100.00
75740;BME280;64357;51.344;6.550;2023-11-18T08:03:13;101745.63;;;5.37;100.00
75740;BME280;64357;51.344;6.550;2023-11-18T08:05:40;101762.56;;;5.43;100.00
75740;BME280;64357;51.344;6.550;2023-11-18T08:08:11;101769.09;;;5.54;100.00
75740;BME280;64357;51.344;6.550;2023-11-18T08:10:38;101762.91;;;5.52;100.00
75740;BME280;64357;51.344;6.550;2023-11-18T08:13:09;101756.13;;;5.58;100.00
75740;BME280;64357;51.344;6.550;2023-11-18T08:15:38;101766.56;;;5.67;100.00
75740;BME280;64357;51.344;6.550;2023-11-18T08:18:04;101766.84;;;5.62;100.00
75740;BME280;64357;51.344;6.550;2023-11-18T08:20:30;101774.44;;;5.62;100.00
75740;BME280;64357;51.344;6.550;2023-11-18T08:22:58;101757.41;;;5.61;100.00
75740;BME280;64357;51.344;6.550;2023-11-18T08:25:24;101771.81;;;5.68;100.00
75740;BME280;64357;51.344;6.550;2023-11-18T08:27:52;101750.97;;;5.64;100.00
75740;BME280;64357;51.344;6.550;2023-11-18T08:30:17;101750.44;;;5.66;100.00
75740;BME280;64357;51.344;6.550;2023-11-18T08:32:44;101759.75;;;5.73;100.00
75740;BME280;64357;51.344;6.550;2023-11-18T08:35:10;101774.38;;;5.81;100.00
75740;BME280;64357;51.344;6.550;2023-11-18T08:37:38;101763.81;;;5.78;100.00
75740;BME280;64357;51.344;6.550;2023-11-18T08:40:07;101767.97;;;5.90;100.00
75740;BME280;64357;51.344;6.550;2023-11-18T08:42:49;101748.22;;;5.87;100.00
75740;BME280;64357;51.344;6.550;2023-11-18T08:45:33;101749.53;;;5.91;100.00
75740;BME280;64357;51.344;6.550;2023-11-18T08:48:03;101754.53;;;5.97;100.00
75740;BME280;64357;51.344;6.550;2023-11-18T08:50:36;101759.09;;;5.99;100.00
75740;BME280;64357;51.344;6.550;2023-11-18T08:53:05;101761.13;;;6.02;100.00
75740;BME280;64357;51.344;6.550;2023-11-18T08:55:31;101745.91;;;6.02;100.00
75740;BME280;64357;51.344;6.550;2023-11-18T08:58:09;101759.38;;;6.08;100.00
75740;BME280;64357;51.344;6.550;2023-11-18T09:00:45;101746.81;;;6.02;100.00
75740;BME280;64357;51.344;6.550;2023-11-18T09:03:17;101744.16;;;6.08;100.00
75740;BME280;64357;51.344;6.550;2023-11-18T09:05:49;101738.72;;;6.05;100.00
75740;BME280;64357;51.344;6.550;2023-11-18T09:08:34;101739.50;;;6.11;100.00
75740;BME280;64357;51.344;6.550;2023-11-18T09:11:07;101731.00;;;6.10;100.00
75740;BME280;64357;51.344;6.550;2023-11-18T09:13:34;101709.25;;;6.12;100.00
75740;BME280;64357;51.344;6.550;2023-11-18T09:16:05;101711.38;;;6.09;100.00
75740;BME280;64357;51.344;6.550;2023-11-18T09:18:39;101701.34;;;6.17;100.00
75740;BME280;64357;51.344;6.550;2023-11-18T09:21:09;101705.50;;;6.16;100.00
75740;BME280;64357;51.344;6.550;2023-11-18T09:23:41;101696.84;;;6.21;100.00
75740;BME280;64357;51.344;6.550;2023-11-18T09:26:08;101699.59;;;6.23;100.00
75740;BME280;64357;51.344;6.550;2023-11-18T09:28:39;101694.00;;;6.25;100.00
75740;BME280;64357;51.344;6.550;2023-11-18T09:31:07;101691.78;;;6.21;100.00
75740;BME280;64357;51.344;6.550;2023-11-18T09:33:38;101696.22;;;6.29;100.00
75740;BME280;64357;51.344;6.550;2023-11-18T09:36:11;101696.72;;;6.27;100.00
75740;BME280;64357;51.344;6.550;2023-11-18T09:38:41;101695.69;;;6.32;100.00
75740;BME280;64357;51.344;6.550;2023-11-18T09:41:08;101688.03;;;6.25;100.00
75740;BME280;64357;51.344;6.550;2023-11-18T09:43:46;101692.56;;;6.27;100.00
75740;BME280;64357;51.344;6.550;2023-11-18T09:46:25;101702.94;;;6.29;100.00
75740;BME280;64357;51.344;6.550;2023-11-18T09:51:41;101697.41;;;6.38;100.00
75740;BME280;64357;51.344;6.550;2023-11-18T09:57:31;101687.72;;;6.49;100.00
75740;BME280;64357;51.344;6.550;2023-11-18T10:02:39;101684.28;;;6.48;100.00
75740;BME280;64357;51.344;6.550;2023-11-18T10:05:09;101678.69;;;6.51;100.00
75740;BME280;64357;51.344;6.550;2023-11-18T10:07:39;101673.09;;;6.53;100.00
75740;BME280;64357;51.344;6.550;2023-11-18T10:10:08;101656.78;;;6.51;100.00
75740;BME280;64357;51.344;6.550;2023-11-18T10:12:43;101654.31;;;6.58;100.00
75740;BME280;64357;51.344;6.550;2023-11-18T10:15:17;101645.66;;;6.63;100.00
75740;BME280;64357;51.344;6.550;2023-11-18T10:17:44;101641.25;;;6.62;100.00
75740;BME280;64357;51.344;6.550;2023-11-18T10:20:26;101631.91;;;6.68;100.00
75740;BME280;64357;51.344;6.550;2023-11-18T10:23:11;101617.19;;;6.66;100.00
75740;BME280;64357;51.344;6.550;2023-11-18T10:28:23;101599.69;;;6.75;100.00
75740;BME280;64357;51.344;6.550;2023-11-18T10:30:50;101611.66;;;6.76;100.00
75740;BME280;64357;51.344;6.550;2023-11-18T10:33:17;101593.88;;;6.76;100.00
75740;BME280;64357;51.344;6.550;2023-11-18T10:35:50;101613.72;;;6.85;100.00
75740;BME280;64357;51.344;6.550;2023-11-18T10:38:21;101589.22;;;6.86;100.00
75740;BME280;64357;51.344;6.550;2023-11-18T10:40:52;101589.75;;;6.83;100.00
75740;BME280;64357;51.344;6.550;2023-11-18T10:43:18;101585.59;;;6.84;100.00
75740;BME280;64357;51.344;6.550;2023-11-18T10:45:46;101595.28;;;6.93;100.00
75740;BME280;64357;51.344;6.550;2023-11-18T10:48:12;101597.47;;;6.98;100.00
75740;BME280;64357;51.344;6.550;2023-11-18T10:50:41;101595.28;;;6.93;100.00
75740;BME280;64357;51.344;6.550;2023-11-18T10:53:08;101596.56;;;6.97;100.00
75740;BME280;64357;51.344;6.550;2023-11-18T10:55:39;101600.69;;;6.89;100.00
75740;BME280;64357;51.344;6.550;2023-11-18T10:58:07;101587.75;;;6.81;100.00
75740;BME280;64357;51.344;6.550;2023-11-18T11:00:51;101582.13;;;6.83;100.00
75740;BME280;64357;51.344;6.550;2023-11-18T11:03:25;101571.06;;;6.83;100.00
75740;BME280;64357;51.344;6.550;2023-11-18T11:05:51;101559.44;;;6.78;100.00
75740;BME280;64357;51.344;6.550;2023-11-18T11:08:19;101559.47;;;6.85;100.00
75740;BME280;64357;51.344;6.550;2023-11-18T11:10:51;101550.44;;;6.87;100.00
75740;BME280;64357;51.344;6.550;2023-11-18T11:13:20;101559.69;;;6.86;100.00
75740;BME280;64357;51.344;6.550;2023-11-18T11:15:49;101552.97;;;6.87;100.00
75740;BME280;64357;51.344;6.550;2023-11-18T11:18:21;101557.91;;;6.92;100.00
75740;BME280;64357;51.344;6.550;2023-11-18T11:21:19;101570.41;;;6.91;100.00
75740;BME280;64357;51.344;6.550;2023-11-18T11:24:10;101569.88;;;6.93;100.00
75740;BME280;64357;51.344;6.550;2023-11-18T11:27:23;101578.78;;;6.97;100.00
75740;BME280;64357;51.344;6.550;2023-11-18T11:30:19;101532.94;;;6.76;100.00
75740;BME280;64357;51.344;6.550;2023-11-18T11:35:33;101520.31;;;6.90;100.00
75740;BME280;64357;51.344;6.550;2023-11-18T11:38:03;101541.28;;;7.09;100.00
75740;BME280;64357;51.344;6.550;2023-11-18T11:40:37;101486.41;;;6.89;100.00
75740;BME280;64357;51.344;6.550;2023-11-18T11:43:06;101509.72;;;7.07;100.00
75740;BME280;64357;51.344;6.550;2023-11-18T11:45:39;101510.78;;;7.02;100.00
75740;BME280;64357;51.344;6.550;2023-11-18T11:48:09;101527.50;;;7.07;100.00
75740;BME280;64357;51.344;6.550;2023-11-18T11:53:20;101539.50;;;7.15;100.00
75740;BME280;64357;51.344;6.550;2023-11-18T11:55:52;101530.97;;;7.14;100.00
75740;BME280;64357;51.344;6.550;2023-11-18T11:58:31;101510.25;;;7.04;100.00
75740;BME280;64357;51.344;6.550;2023-11-18T12:01:26;101510.44;;;7.06;100.00
75740;BME280;64357;51.344;6.550;2023-11-18T12:03:58;101529.41;;;7.22;100.00
75740;BME280;64357;51.344;6.550;2023-11-18T12:06:41;101497.78;;;7.20;100.00
75740;BME280;64357;51.344;6.550;2023-11-18T12:09:12;101476.56;;;7.19;100.00
75740;BME280;64357;51.344;6.550;2023-11-18T12:11:44;101470.25;;;7.23;100.00
75740;BME280;64357;51.344;6.550;2023-11-18T12:14:14;101468.22;;;7.20;100.00
75740;BME280;64357;51.344;6.550;2023-11-18T12:17:11;101457.72;;;7.25;100.00
75740;BME280;64357;51.344;6.550;2023-11-18T12:19:41;101435.91;;;7.19;100.00
75740;BME280;64357;51.344;6.550;2023-11-18T12:23:03;101404.31;;;7.10;100.00
75740;BME280;64357;51.344;6.550;2023-11-18T12:27:56;101428.13;;;7.32;100.00
75740;BME280;64357;51.344;6.550;2023-11-18T12:36:47;101415.66;;;7.34;100.00
75740;BME280;64357;51.344;6.550;2023-11-18T12:41:39;101419.84;;;7.40;100.00
75740;BME280;64357;51.344;6.550;2023-11-18T12:47:10;101381.88;;;7.35;100.00
75740;BME280;64357;51.344;6.550;2023-11-18T12:49:44;101355.56;;;7.34;100.00
75740;BME280;64357;51.344;6.550;2023-11-18T12:52:16;101357.75;;;7.45;100.00
75740;BME280;64357;51.344;6.550;2023-11-18T12:54:46;101324.72;;;7.45;100.00
75740;BME280;64357;51.344;6.550;2023-11-18T12:57:22;101327.03;;;7.37;100.00
75740;BME280;64357;51.344;6.550;2023-11-18T12:59:51;101319.97;;;7.34;100.00
75740;BME280;64357;51.344;6.550;2023-11-18T13:02:17;101328.31;;;7.47;100.00
75740;BME280;64357;51.344;6.550;2023-11-18T13:04:48;101294.34;;;7.33;100.00
75740;BME280;64357;51.344;6.550;2023-11-18T13:07:18;101305.81;;;7.43;100.00
75740;BME280;64357;51.344;6.550;2023-11-18T13:09:44;101272.25;;;7.39;100.00
75740;BME280;64357;51.344;6.550;2023-11-18T13:12:11;101264.22;;;7.50;100.00
75740;BME280;64357;51.344;6.550;2023-11-18T13:14:41;101241.00;;;7.40;100.00
75740;BME280;64357;51.344;6.550;2023-11-18T13:17:11;101233.00;;;7.37;100.00
75740;BME280;64357;51.344;6.550;2023-11-18T13:19:40;101257.53;;;7.51;100.00
75740;BME280;64357;51.344;6.550;2023-11-18T13:22:08;101231.91;;;7.42;100.00
75740;BME280;64357;51.344;6.550;2023-11-18T13:24:38;101225.91;;;7.48;100.00
75740;BME280;64357;51.344;6.550;2023-11-18T13:27:12;101181.13;;;7.28;100.00
75740;BME280;64357;51.344;6.550;2023-11-18T13:29:43;101182.38;;;7.31;100.00
75740;BME280;64357;51.344;6.550;2023-11-18T13:32:10;101166.06;;;7.29;100.00